Erin, New York
Current Conditions -  °F | °C
As of 5:53 PM on Wednesday 26 Nov 2014 (Local Time) from KELM Reporting Station
Light Snow Light Snow  
Wind Chill: 33°   Ceiling: 1700
Heat Index: 33°   Visibility: 1.5mi
Dew Point: 30°   Wind: 0mph
Humidity: 89%   Direction: NA
Pressure: 30.01"   Gusts: NA
Location:  42.19°N, 76.67°W
Report Text: KELM 262253Z 00000KT 1 1/2SM -SN BR FEW012 OVC017 01/M01 A3001 RMK AO2 SLP171 P0001 T00061011
Loading
Personal Weather Stations






























Interactive Weather Map New forecast layout! Learn more

10-Day Weather Forecast

Advertisements
Track Severe Weather on mobile